ADDS METAR Data INFO
IDs: Format: Raw Decoded Include TAF

Data at: 2258 UTC 22 Jun 2018

METAR for:TIST (St Thomas/King Arpt, --, VI)
Text:TIST 222253Z 12011KT 10SM FEW070 28/23 A3005 RMK AO2 SLP178 T02780228
Temperature: 27.8°C ( 82°F)
Dewpoint: 22.8°C ( 73°F) [RH = 74%]
Pressure (altimeter):30.05 inches Hg (1017.7 mb) [Sea level pressure: 1017.8 mb]
Winds:from the ESE (120 degrees) at 13 MPH (11 knots; 5.7 m/s)
Visibility:10 or more sm (16+ km)
Ceiling:at least 12,000 feet AGL
Clouds: few clouds at 7000 feet AGL